Capitol Logistics 526




ZBAD
Beijing Daxing International Airport
Beijing, CN
RKSI
Incheon International Airport
Seoul, KR

Activity Log

Date Flight Route Aircraft Duration
04/15/2022 CPX526 OMD12D OMDEK W37 VYK W34 ANRAT A326 DONVO G597 GONAV REBIT REBI1H MD11 1h 42m

Route Details

Aircraft Information
Group: Trans-Pacific Ops
Types: B744,B763,MD11
Route Data
Demand: H
Distance: 488nm
Duration: 1h 44m
Recm'd Route: OMD12D OMDEK W37 VYK W34 ANRAT A326 DONVO G597 GONAV REBIT REBI1H
Origin Wx: ZBAD 242230Z 01009MPS CAVOK 21/03 Q1015 NOSIG
Dest. Wx: RKSI 242200Z 32001KT 5000 0600NW BCFG SCT002 15/15 Q1012 NOSIG
Notes:

Financial History
Total Freight: 182,195lbs
Average Load: 182,195lbs/flt
Fuel Used: 21,890lbs
Avg. Fuel Used: 21,890lbs/flt
Fuel Expense: $11,164
Avg. Fuel Expense: $11,164
Avg. Fuel Cost: $0.51/lbs
Total Gross Income: $834,453
Pilot Pay: $259
Total Expenses: $103,149
Total Revenue: $719,770
Average Revenue: $834,453.13